Terminal Aerodrome Forecast
Issued by NWS Cleveland, OH

Home | Current Version | Previous Version | Text Only | Print | Product List | Glossary On
Versions: 1 2 3 4 5 6 7 8 9 10 11 12 13 14
044
FTUS41 KCLE 261137
TAFCAK
TAF
KCAK 261137Z 2612/2712 18010KT P6SM SCT040 OVC080
     FM261500 25012KT 5SM -SHRA SCT015 OVC025
     FM262200 28014G22KT P6SM SCT025 OVC050=

USA.gov is the U.S. government's official web portal to all federal, state and local government web resources and services.